createdAt,value
2023-05-25T00:00:26.717Z,16.97
2023-05-25T00:02:56.623Z,16.77
2023-05-25T00:05:27.870Z,16.13
2023-05-25T00:07:57.322Z,20.23
2023-05-25T00:10:27.404Z,19.13
2023-05-25T00:12:58.024Z,18.17
2023-05-25T00:15:28.249Z,15.50
2023-05-25T00:17:58.041Z,18.23
2023-05-25T00:20:27.466Z,15.37
2023-05-25T00:22:56.575Z,19.50
2023-05-25T00:25:26.164Z,15.30
2023-05-25T00:27:57.232Z,16.27
2023-05-25T00:30:28.878Z,17.63
2023-05-25T00:32:58.140Z,19.63
2023-05-25T00:35:29.178Z,15.20
2023-05-25T00:38:01.308Z,18.87
2023-05-25T00:40:32.266Z,18.67
2023-05-25T00:43:04.834Z,16.30
2023-05-25T00:45:38.437Z,21.97
2023-05-25T00:48:09.597Z,18.93
2023-05-25T00:50:42.651Z,20.00
2023-05-25T00:53:14.486Z,17.47
2023-05-25T00:55:50.596Z,22.80
2023-05-25T00:58:24.306Z,21.50
2023-05-25T01:00:56.368Z,20.70
2023-05-25T01:03:30.860Z,23.13
2023-05-25T01:06:02.356Z,20.13
2023-05-25T01:08:40.748Z,21.30
2023-05-25T01:12:23.798Z,17.80
2023-05-25T01:14:55.512Z,19.80
2023-05-25T01:17:24.093Z,22.00
2023-05-25T01:20:08.850Z,20.57
2023-05-25T01:22:46.656Z,16.73
2023-05-25T01:25:22.859Z,17.37
2023-05-25T01:27:59.579Z,17.57
2023-05-25T01:30:29.263Z,22.73
2023-05-25T01:32:58.589Z,19.00
2023-05-25T01:35:28.560Z,16.57
2023-05-25T01:38:00.644Z,15.77
2023-05-25T01:40:29.318Z,22.17
2023-05-25T01:42:57.798Z,21.83
2023-05-25T01:45:26.975Z,16.47
2023-05-25T01:48:07.033Z,20.87
2023-05-25T01:50:46.721Z,17.40
2023-05-25T01:53:21.832Z,20.50
2023-05-25T01:55:57.497Z,19.47
2023-05-25T01:58:28.023Z,20.37
2023-05-25T02:00:57.763Z,20.17
2023-05-25T02:03:26.658Z,22.67
2023-05-25T02:05:57.917Z,19.37
2023-05-25T02:08:27.962Z,21.00
2023-05-25T02:10:56.423Z,20.20
2023-05-25T02:13:24.894Z,18.10
2023-05-25T02:15:54.460Z,19.17
2023-05-25T02:18:23.779Z,21.20
2023-05-25T02:20:52.399Z,21.60
2023-05-25T02:23:21.154Z,23.37
2023-05-25T02:25:51.885Z,16.57
2023-05-25T02:28:22.795Z,18.60
2023-05-25T02:30:51.478Z,19.40
2023-05-25T02:33:20.396Z,20.47
2023-05-25T02:35:50.101Z,20.87
2023-05-25T02:38:18.581Z,16.63
2023-05-25T02:40:47.724Z,19.70
2023-05-25T02:43:17.620Z,25.07
2023-05-25T02:45:46.314Z,19.97
2023-05-25T02:48:14.727Z,18.80
2023-05-25T02:50:44.463Z,20.00
2023-05-25T02:53:12.921Z,17.40
2023-05-25T02:55:43.511Z,23.43
2023-05-25T02:58:12.461Z,22.27
2023-05-25T03:00:43.004Z,15.50
2023-05-25T03:03:11.711Z,22.57
2023-05-25T03:05:40.264Z,25.93
2023-05-25T03:08:09.384Z,20.47
2023-05-25T03:10:38.426Z,21.33
2023-05-25T03:13:07.420Z,21.00
2023-05-25T03:15:36.194Z,21.77
2023-05-25T03:18:07.145Z,26.67
2023-05-25T03:20:36.391Z,21.63
2023-05-25T03:23:05.187Z,23.37
2023-05-25T03:25:33.532Z,22.73
2023-05-25T03:28:02.125Z,22.20
2023-05-25T03:30:31.470Z,21.83
2023-05-25T03:33:00.141Z,24.47
2023-05-25T03:35:29.985Z,23.17
2023-05-25T03:37:58.444Z,20.13
2023-05-25T03:40:27.103Z,16.47
2023-05-25T03:42:55.688Z,28.37
2023-05-25T03:45:24.108Z,22.70
2023-05-25T03:47:53.225Z,22.27
2023-05-25T03:50:21.838Z,19.17
2023-05-25T03:52:52.687Z,18.27
2023-05-25T03:55:21.344Z,23.37
2023-05-25T03:57:49.818Z,23.60
2023-05-25T04:00:18.785Z,21.70
2023-05-25T04:02:47.382Z,22.67
2023-05-25T04:09:23.874Z,27.23
2023-05-25T04:11:52.594Z,24.53
2023-05-25T04:14:21.785Z,21.13
2023-05-25T04:16:50.609Z,22.63
2023-05-25T04:19:19.285Z,27.83
2023-05-25T04:22:01.026Z,26.07
2023-05-25T04:24:32.606Z,26.00
2023-05-25T04:27:02.356Z,22.47
2023-05-25T04:29:32.148Z,27.60
2023-05-25T04:32:01.015Z,24.17
2023-05-25T04:34:30.177Z,25.47
2023-05-25T04:36:58.848Z,21.30
2023-05-25T04:39:27.567Z,26.27
2023-05-25T04:41:57.672Z,21.47
2023-05-25T04:44:29.960Z,21.97
2023-05-25T04:46:59.622Z,20.87
2023-05-25T04:49:28.166Z,27.20
2023-05-25T04:51:56.598Z,21.70
2023-05-25T04:54:25.545Z,22.27
2023-05-25T04:56:54.294Z,29.43
2023-05-25T04:59:24.199Z,22.40
2023-05-25T05:01:52.903Z,22.20
2023-05-25T05:04:21.527Z,23.17
2023-05-25T05:06:50.100Z,19.20
2023-05-25T05:09:18.701Z,25.23
2023-05-25T05:11:47.124Z,22.27
2023-05-25T05:14:15.697Z,21.90
2023-05-25T05:16:45.481Z,22.07
2023-05-25T05:19:14.358Z,27.40
2023-05-25T05:21:43.016Z,23.93
2023-05-25T05:24:11.767Z,20.03
2023-05-25T05:26:56.171Z,19.43
2023-05-25T05:29:26.999Z,21.73
2023-05-25T05:31:57.628Z,19.90
2023-05-25T05:34:26.136Z,22.40
2023-05-25T05:36:58.491Z,16.77
2023-05-25T05:39:28.288Z,19.87
2023-05-25T05:41:57.191Z,19.93
2023-05-25T05:44:29.002Z,20.10
2023-05-25T05:47:01.887Z,16.90
2023-05-25T05:49:31.309Z,17.23
2023-05-25T05:52:00.477Z,14.60
2023-05-25T05:54:29.185Z,18.10
2023-05-25T05:56:57.843Z,13.57
2023-05-25T05:59:26.859Z,13.87
2023-05-25T06:01:56.176Z,11.17
2023-05-25T06:04:29.004Z,11.27
2023-05-25T06:06:58.639Z,17.83
2023-05-25T06:09:27.567Z,15.30
2023-05-25T06:11:56.163Z,13.23
2023-05-25T06:14:26.776Z,12.10
2023-05-25T06:16:56.948Z,14.80
2023-05-25T06:19:26.896Z,15.93
2023-05-25T06:21:55.364Z,16.30
2023-05-25T06:24:23.956Z,12.20
2023-05-25T06:26:52.514Z,10.33
2023-05-25T06:29:21.022Z,10.23
2023-05-25T06:31:49.532Z,14.00
2023-05-25T06:34:18.003Z,11.40
2023-05-25T06:36:48.178Z,12.30
2023-05-25T06:39:16.704Z,11.90
2023-05-25T06:41:45.344Z,11.03
2023-05-25T06:44:13.908Z,17.27
2023-05-25T06:46:42.492Z,14.33
2023-05-25T06:49:11.481Z,14.93
2023-05-25T06:51:40.000Z,11.80
2023-05-25T06:54:09.925Z,11.67
2023-05-25T06:56:38.369Z,9.60
2023-05-25T07:01:36.762Z,15.03
2023-05-25T07:04:05.334Z,12.03
2023-05-25T07:06:34.105Z,15.63
2023-05-25T07:09:02.467Z,14.17
2023-05-25T07:11:32.410Z,16.27
2023-05-25T07:14:00.962Z,14.93
2023-05-25T07:16:29.692Z,15.27
2023-05-25T07:19:00.052Z,17.73
2023-05-25T07:21:32.482Z,15.07
2023-05-25T07:24:01.793Z,14.43
2023-05-25T07:26:32.202Z,17.73
2023-05-25T07:29:01.621Z,16.97
2023-05-25T07:31:30.799Z,20.13
2023-05-25T07:33:59.639Z,15.07
2023-05-25T07:36:28.227Z,14.17
2023-05-25T07:38:56.747Z,17.20
2023-05-25T07:41:25.417Z,19.97
2023-05-25T07:43:55.252Z,15.73
2023-05-25T07:46:25.436Z,18.47
2023-05-25T07:48:54.721Z,17.37
2023-05-25T07:51:26.586Z,17.90
2023-05-25T07:53:55.418Z,19.43
2023-05-25T07:56:24.128Z,15.33
2023-05-25T07:58:52.594Z,22.07
2023-05-25T08:01:24.893Z,19.23
2023-05-25T08:03:54.912Z,16.27
2023-05-25T08:06:23.795Z,21.10
2023-05-25T08:08:52.387Z,19.27
2023-05-25T08:11:25.308Z,21.07
2023-05-25T08:13:53.900Z,16.93
2023-05-25T08:16:24.086Z,19.67
2023-05-25T08:18:52.640Z,18.43
2023-05-25T08:21:21.436Z,19.63
2023-05-25T08:23:50.798Z,19.23
2023-05-25T08:26:37.862Z,17.50
2023-05-25T08:29:08.295Z,18.33
2023-05-25T08:31:38.302Z,22.03
2023-05-25T08:34:06.924Z,22.43
2023-05-25T08:36:36.277Z,16.87
2023-05-25T08:39:05.861Z,20.33
2023-05-25T08:41:36.046Z,17.13
2023-05-25T08:44:08.112Z,18.37
2023-05-25T08:46:38.751Z,17.87
2023-05-25T08:49:11.690Z,18.13
2023-05-25T08:51:44.334Z,21.43
2023-05-25T08:54:15.229Z,13.90
2023-05-25T08:56:51.330Z,17.40
2023-05-25T08:59:32.858Z,21.63
2023-05-25T09:02:21.567Z,15.90
2023-05-25T09:04:50.272Z,17.93
2023-05-25T09:07:19.204Z,17.83
2023-05-25T09:09:50.011Z,16.50
2023-05-25T09:12:19.920Z,17.30
2023-05-25T09:14:48.590Z,18.03
2023-05-25T09:17:20.115Z,15.33
2023-05-25T09:19:48.791Z,14.50
2023-05-25T09:22:17.984Z,18.07
2023-05-25T09:24:47.116Z,16.83
2023-05-25T09:27:19.676Z,16.37
2023-05-25T09:29:50.100Z,17.57
2023-05-25T09:32:21.005Z,16.00
2023-05-25T09:34:49.583Z,13.13
2023-05-25T09:37:20.089Z,11.43
2023-05-25T09:39:49.298Z,17.03
2023-05-25T09:42:18.302Z,13.43
2023-05-25T09:44:46.834Z,15.50
2023-05-25T09:47:17.094Z,17.03
2023-05-25T09:49:49.513Z,13.93
2023-05-25T09:52:18.414Z,16.43
2023-05-25T09:54:47.904Z,17.13
2023-05-25T09:57:17.353Z,15.53
2023-05-25T09:59:46.363Z,17.57
2023-05-25T10:02:15.784Z,18.53
2023-05-25T10:04:44.638Z,15.50
2023-05-25T10:07:16.277Z,13.23
2023-05-25T10:09:47.937Z,16.73
2023-05-25T10:12:20.975Z,17.43
2023-05-25T10:14:54.263Z,18.80
2023-05-25T10:17:25.810Z,11.80
2023-05-25T10:19:59.440Z,17.20
2023-05-25T10:22:36.046Z,17.50
2023-05-25T10:25:12.308Z,18.03
2023-05-25T10:27:43.158Z,16.90
2023-05-25T10:30:13.129Z,18.83
2023-05-25T10:32:44.241Z,14.20
2023-05-25T10:35:13.817Z,13.30
2023-05-25T10:37:45.503Z,15.43
2023-05-25T10:40:15.401Z,15.30
2023-05-25T10:42:44.391Z,15.00
2023-05-25T10:45:13.725Z,18.17
2023-05-25T10:47:43.313Z,17.80
2023-05-25T10:50:22.952Z,16.43
2023-05-25T10:53:03.872Z,15.53
2023-05-25T10:55:44.203Z,13.70
2023-05-25T10:58:15.052Z,14.77
2023-05-25T11:00:44.899Z,12.87
2023-05-25T11:03:13.476Z,16.23
2023-05-25T11:05:42.207Z,14.63
2023-05-25T11:08:13.224Z,12.70
2023-05-25T11:11:00.292Z,15.40
2023-05-25T11:13:39.771Z,15.20
2023-05-25T11:16:14.891Z,16.03
2023-05-25T11:18:44.151Z,16.60
2023-05-25T11:21:18.753Z,17.80
2023-05-25T11:24:00.279Z,15.80
2023-05-25T11:26:31.843Z,16.20
2023-05-25T11:29:02.341Z,17.70
2023-05-25T11:31:37.543Z,16.00
2023-05-25T11:34:09.490Z,15.50
2023-05-25T11:36:39.402Z,13.50
2023-05-25T11:39:17.521Z,15.93
2023-05-25T11:41:54.732Z,15.50
2023-05-25T11:44:31.278Z,17.55
2023-05-25T11:47:06.066Z,15.35
2023-05-25T11:49:34.569Z,14.02
2023-05-25T11:52:08.326Z,16.90
2023-05-25T11:54:41.154Z,16.85
2023-05-25T11:57:18.052Z,15.48
2023-05-25T11:59:51.126Z,13.40
2023-05-25T12:02:21.336Z,14.13
2023-05-25T12:04:58.578Z,16.65
2023-05-25T12:07:29.124Z,16.40
2023-05-25T12:10:08.766Z,19.13
2023-05-25T12:12:42.943Z,18.13
2023-05-25T12:15:13.321Z,15.48
2023-05-25T12:17:44.871Z,14.73
2023-05-25T12:20:16.106Z,16.85
2023-05-25T12:22:46.284Z,14.13
2023-05-25T12:25:20.993Z,13.77
2023-05-25T12:27:49.471Z,11.35
2023-05-25T12:30:18.010Z,17.80
2023-05-25T12:32:55.645Z,17.83
2023-05-25T12:35:24.504Z,13.45
2023-05-25T12:38:10.848Z,13.50
2023-05-25T12:40:42.123Z,19.08
2023-05-25T12:43:13.959Z,16.13
2023-05-25T12:45:43.975Z,14.15
2023-05-25T12:48:13.127Z,14.38
2023-05-25T12:50:58.626Z,14.07
2023-05-25T12:53:29.066Z,14.80
2023-05-25T12:56:06.635Z,12.07
2023-05-25T12:58:35.127Z,15.68
2023-05-25T13:01:03.609Z,15.85
2023-05-25T13:03:32.263Z,15.25
2023-05-25T13:06:04.845Z,16.60
2023-05-25T13:08:33.285Z,15.02
2023-05-25T13:11:03.756Z,13.95
2023-05-25T13:13:33.751Z,14.55
2023-05-25T13:16:02.257Z,14.68
2023-05-25T13:18:30.752Z,12.68
2023-05-25T13:20:59.766Z,14.98
2023-05-25T13:23:28.681Z,17.50
2023-05-25T13:25:57.264Z,14.55
2023-05-25T13:28:26.053Z,16.70
2023-05-25T13:30:55.788Z,13.77
2023-05-25T13:33:24.400Z,13.30
2023-05-25T13:35:59.573Z,13.52
2023-05-25T13:38:29.674Z,17.05
2023-05-25T13:40:58.416Z,16.00
2023-05-25T13:43:27.229Z,13.80
2023-05-25T13:45:59.102Z,15.60
2023-05-25T13:48:28.300Z,14.05
2023-05-25T13:50:57.150Z,14.95
2023-05-25T13:53:25.674Z,16.67
2023-05-25T13:55:54.409Z,14.48
2023-05-25T13:58:24.655Z,16.42
2023-05-25T14:00:53.497Z,13.07
2023-05-25T14:03:23.645Z,18.55
2023-05-25T14:05:53.866Z,14.52
2023-05-25T14:08:22.570Z,14.75
2023-05-25T14:10:51.145Z,12.57
2023-05-25T14:13:19.871Z,16.85
2023-05-25T14:15:48.438Z,12.75
2023-05-25T14:18:17.217Z,13.32
2023-05-25T14:20:47.341Z,14.88
2023-05-25T14:23:18.456Z,15.45
2023-05-25T14:25:48.834Z,14.88
2023-05-25T14:28:17.496Z,14.90
2023-05-25T14:30:45.976Z,13.35
2023-05-25T14:33:15.841Z,16.77
2023-05-25T14:35:44.712Z,14.15
2023-05-25T14:38:14.744Z,14.60
2023-05-25T14:40:43.229Z,16.50
2023-05-25T14:43:11.822Z,13.15
2023-05-25T14:45:40.411Z,13.25
2023-05-25T14:50:44.481Z,11.68
2023-05-25T14:53:14.815Z,15.43
2023-05-25T14:55:43.747Z,19.23
2023-05-25T14:58:12.416Z,15.70
2023-05-25T15:00:40.904Z,15.10
2023-05-25T15:03:09.509Z,14.48
2023-05-25T15:05:38.047Z,13.05
2023-05-25T15:08:06.774Z,10.82
2023-05-25T15:10:36.960Z,13.50
2023-05-25T15:13:05.494Z,13.75
2023-05-25T15:15:34.033Z,15.35
2023-05-25T15:18:02.574Z,13.98
2023-05-25T15:20:31.308Z,11.10
2023-05-25T15:22:59.898Z,15.52
2023-05-25T15:28:01.697Z,11.88
2023-05-25T15:30:30.358Z,15.38
2023-05-25T15:32:58.951Z,12.48
2023-05-25T15:35:31.570Z,13.45
2023-05-25T15:38:00.455Z,12.05
2023-05-25T15:40:29.363Z,10.07
2023-05-25T15:42:57.846Z,11.77
2023-05-25T15:45:27.714Z,14.43
2023-05-25T15:47:56.339Z,12.52
2023-05-25T15:50:24.870Z,15.60
2023-05-25T15:52:53.201Z,13.75
2023-05-25T15:55:22.059Z,16.13
2023-05-25T15:57:50.569Z,11.52
2023-05-25T16:00:19.890Z,13.13
2023-05-25T16:02:49.919Z,12.45
2023-05-25T16:05:18.901Z,15.80
2023-05-25T16:07:47.449Z,16.05
2023-05-25T16:10:15.966Z,15.88
2023-05-25T16:12:46.340Z,13.38
2023-05-25T16:15:15.347Z,15.52
2023-05-25T16:17:44.070Z,15.80
2023-05-25T16:20:14.549Z,15.52
2023-05-25T16:22:43.316Z,15.05
2023-05-25T16:25:12.287Z,12.57
2023-05-25T16:27:40.984Z,15.23
2023-05-25T16:30:12.536Z,12.90
2023-05-25T16:32:42.129Z,15.93
2023-05-25T16:35:11.116Z,12.68
2023-05-25T16:37:41.358Z,9.70
2023-05-25T16:40:11.349Z,11.82
2023-05-25T16:42:39.902Z,15.68
2023-05-25T16:45:09.944Z,11.20
2023-05-25T16:47:38.614Z,13.70
2023-05-25T16:50:09.237Z,11.68
2023-05-25T16:52:38.138Z,13.85
2023-05-25T16:55:09.378Z,15.40
2023-05-25T16:57:37.755Z,10.38
2023-05-25T17:00:08.285Z,12.25
2023-05-25T17:02:36.978Z,14.80
2023-05-25T17:05:06.836Z,14.88
2023-05-25T17:07:35.939Z,11.63
2023-05-25T17:10:04.596Z,10.48
2023-05-25T17:12:34.410Z,12.20
2023-05-25T17:15:02.976Z,12.35
2023-05-25T17:17:31.589Z,12.20
2023-05-25T17:20:00.472Z,13.23
2023-05-25T17:22:29.011Z,12.70
2023-05-25T17:24:57.467Z,13.40
2023-05-25T17:27:26.084Z,14.35
2023-05-25T17:29:55.988Z,15.43
2023-05-25T17:32:24.637Z,12.50
2023-05-25T17:34:53.175Z,16.98
2023-05-25T17:37:21.645Z,14.93
2023-05-25T17:39:50.141Z,11.13
2023-05-25T17:42:18.802Z,14.55
2023-05-25T17:44:47.266Z,9.57
2023-05-25T17:47:17.803Z,14.85
2023-05-25T17:49:46.290Z,11.95
2023-05-25T17:52:14.901Z,15.93
2023-05-25T17:54:43.458Z,15.85
2023-05-25T17:57:14.087Z,15.13
2023-05-25T17:59:44.825Z,15.23
2023-05-25T18:02:14.692Z,14.50
2023-05-25T18:04:44.936Z,15.13
2023-05-25T18:07:13.478Z,17.83
2023-05-25T18:09:44.661Z,14.98
2023-05-25T18:12:13.297Z,13.32
2023-05-25T18:14:44.753Z,16.55
2023-05-25T18:17:13.504Z,16.38
2023-05-25T18:19:43.580Z,14.77
2023-05-25T18:22:12.141Z,16.98
2023-05-25T18:24:41.275Z,18.90
2023-05-25T18:27:09.746Z,20.45
2023-05-25T18:29:38.203Z,18.13
2023-05-25T18:32:07.289Z,20.00
2023-05-25T18:34:35.707Z,17.30
2023-05-25T18:37:05.795Z,20.80
2023-05-25T18:39:34.549Z,18.43
2023-05-25T18:42:03.150Z,18.83
2023-05-25T18:44:31.567Z,17.50
2023-05-25T18:47:00.164Z,20.57
2023-05-25T18:49:32.810Z,17.20
2023-05-25T18:52:01.507Z,18.30
2023-05-25T18:54:31.643Z,17.93
2023-05-25T18:57:01.820Z,22.33
2023-05-25T18:59:31.609Z,18.47
2023-05-25T19:02:00.436Z,19.90
2023-05-25T19:04:29.346Z,18.40
2023-05-25T19:06:58.013Z,21.73
2023-05-25T19:09:26.652Z,21.00
2023-05-25T19:11:56.630Z,22.40
2023-05-25T19:14:25.170Z,21.70
2023-05-25T19:16:53.815Z,18.57
2023-05-25T19:19:22.385Z,26.17
2023-05-25T19:21:50.989Z,17.90
2023-05-25T19:24:19.705Z,22.63
2023-05-25T19:26:49.830Z,21.17
2023-05-25T19:29:19.919Z,20.90
2023-05-25T19:31:48.389Z,19.40
2023-05-25T19:34:16.995Z,17.50
2023-05-25T19:36:45.641Z,24.37
2023-05-25T19:39:14.891Z,22.30
2023-05-25T19:41:43.407Z,21.10
2023-05-25T19:44:12.402Z,21.43
2023-05-25T19:46:42.482Z,19.60
2023-05-25T19:49:11.003Z,22.00
2023-05-25T19:51:39.574Z,18.90
2023-05-25T19:54:08.485Z,24.13
2023-05-25T19:56:37.011Z,31.37
2023-05-25T19:59:07.410Z,26.43
2023-05-25T20:01:36.539Z,21.37
2023-05-25T20:04:06.474Z,21.97
2023-05-25T20:06:34.953Z,26.60
2023-05-25T20:09:03.697Z,20.23
2023-05-25T20:11:32.161Z,23.73
2023-05-25T20:14:00.670Z,24.33
2023-05-25T20:16:29.524Z,22.13
2023-05-25T20:18:58.430Z,23.70
2023-05-25T20:21:29.353Z,21.53
2023-05-25T20:23:59.156Z,23.63
2023-05-25T20:26:27.730Z,20.37
2023-05-25T20:28:56.408Z,24.87
2023-05-25T20:31:26.979Z,22.40
2023-05-25T20:33:55.521Z,23.37
2023-05-25T20:36:24.148Z,14.90
2023-05-25T20:38:54.542Z,18.87
2023-05-25T20:41:23.076Z,26.03
2023-05-25T20:43:51.597Z,26.40
2023-05-25T20:46:20.224Z,19.50
2023-05-25T20:48:48.686Z,19.83
2023-05-25T20:51:17.309Z,22.13
2023-05-25T20:53:45.755Z,19.50
2023-05-25T20:56:16.208Z,24.37
2023-05-25T20:58:45.004Z,18.73
2023-05-25T21:01:14.145Z,18.47
2023-05-25T21:03:42.828Z,18.77
2023-05-25T21:06:11.468Z,21.43
2023-05-25T21:08:39.947Z,21.47
2023-05-25T21:11:08.813Z,19.10
2023-05-25T21:13:39.084Z,23.90
2023-05-25T21:16:08.496Z,20.57
2023-05-25T21:18:37.032Z,22.93
2023-05-25T21:21:05.957Z,16.40
2023-05-25T21:23:34.438Z,22.03
2023-05-25T21:26:05.730Z,27.40
2023-05-25T21:28:34.286Z,22.87
2023-05-25T21:31:04.384Z,25.60
2023-05-25T21:33:35.938Z,20.90
2023-05-25T21:36:05.778Z,21.47
2023-05-25T21:38:34.861Z,24.17
2023-05-25T21:41:03.382Z,21.13
2023-05-25T21:43:31.911Z,23.83
2023-05-25T21:46:00.743Z,19.93
2023-05-25T21:48:30.682Z,24.33
2023-05-25T21:50:59.446Z,28.43
2023-05-25T21:53:28.321Z,22.27
2023-05-25T21:55:57.079Z,27.40
2023-05-25T21:58:25.637Z,21.70
2023-05-25T22:00:54.144Z,25.60
2023-05-25T22:03:22.748Z,23.63
2023-05-25T22:05:52.836Z,23.37
2023-05-25T22:08:21.426Z,19.50
2023-05-25T22:10:49.964Z,25.40
2023-05-25T22:13:18.595Z,20.57
2023-05-25T22:15:47.180Z,25.03
2023-05-25T22:18:16.536Z,26.33
2023-05-25T22:20:45.187Z,31.17
2023-05-25T22:23:15.643Z,19.20
2023-05-25T22:25:44.321Z,24.70
2023-05-25T22:28:13.098Z,23.90
2023-05-25T22:30:42.459Z,22.57
2023-05-25T22:33:11.235Z,22.77
2023-05-25T22:35:39.886Z,27.60
2023-05-25T22:38:08.363Z,23.23
2023-05-25T22:40:38.530Z,22.70
2023-05-25T22:43:12.802Z,24.00
2023-05-25T22:45:42.173Z,22.53
2023-05-25T22:48:12.381Z,17.53
2023-05-25T22:50:41.245Z,26.87
2023-05-25T22:53:09.884Z,19.30
2023-05-25T22:55:39.737Z,18.33
2023-05-25T22:58:08.126Z,20.87
2023-05-25T23:00:36.707Z,23.00
2023-05-25T23:03:05.314Z,20.97
2023-05-25T23:05:34.500Z,23.70
2023-05-25T23:08:03.829Z,16.50
2023-05-25T23:10:32.323Z,24.70
2023-05-25T23:13:02.492Z,26.73
2023-05-25T23:15:31.258Z,20.37
2023-05-25T23:18:00.017Z,18.53
2023-05-25T23:20:28.767Z,21.53
2023-05-25T23:22:57.357Z,22.90
2023-05-25T23:25:26.280Z,19.10
2023-05-25T23:27:54.757Z,24.07
2023-05-25T23:30:24.759Z,18.60
2023-05-25T23:32:53.196Z,23.73
2023-05-25T23:35:22.787Z,21.40
2023-05-25T23:37:52.124Z,20.90
2023-05-25T23:40:20.895Z,23.40
2023-05-25T23:42:49.360Z,24.00
2023-05-25T23:45:17.866Z,24.87
2023-05-25T23:47:47.899Z,28.13
2023-05-25T23:50:16.492Z,29.13
2023-05-25T23:52:45.836Z,25.47
2023-05-25T23:55:14.875Z,27.20
2023-05-25T23:57:45.650Z,21.77
